createdAt,value
2017-12-24T00:00:38.153Z,40.00
2017-12-24T00:01:37.328Z,39.70
2017-12-24T00:02:37.940Z,39.90
2017-12-24T00:03:37.394Z,40.80
2017-12-24T00:04:36.966Z,37.50
2017-12-24T00:05:38.512Z,42.50
2017-12-24T00:06:38.810Z,41.30
2017-12-24T00:07:38.229Z,42.20
2017-12-24T00:08:37.679Z,38.00
2017-12-24T00:09:37.897Z,40.70
2017-12-24T00:10:37.540Z,38.20
2017-12-24T00:11:37.857Z,38.50
2017-12-24T00:12:38.415Z,39.30
2017-12-24T00:13:37.556Z,39.90
2017-12-24T00:14:37.166Z,41.80
2017-12-24T00:15:59.115Z,40.40
2017-12-24T00:16:59.530Z,37.30
2017-12-24T00:18:00.780Z,36.40
2017-12-24T00:18:59.432Z,38.90
2017-12-24T00:20:00.600Z,40.50
2017-12-24T00:20:59.551Z,36.60
2017-12-24T00:21:59.910Z,39.20
2017-12-24T00:23:00.480Z,38.70
2017-12-24T00:24:00.043Z,41.10
2017-12-24T00:24:58.700Z,42.60
2017-12-24T00:26:00.191Z,32.20
2017-12-24T00:26:59.517Z,28.60
2017-12-24T00:28:00.040Z,34.70
2017-12-24T00:28:59.336Z,37.00
2017-12-24T00:29:59.810Z,39.40
2017-12-24T00:30:59.584Z,39.00
2017-12-24T00:31:59.821Z,33.60
2017-12-24T00:33:00.731Z,36.40
2017-12-24T00:33:59.756Z,37.60
2017-12-24T00:34:59.817Z,35.70
2017-12-24T00:36:00.164Z,37.40
2017-12-24T00:36:59.457Z,36.50
2017-12-24T00:37:59.016Z,39.10
2017-12-24T00:38:59.292Z,40.50
2017-12-24T00:39:59.227Z,38.20
2017-12-24T00:40:59.570Z,38.80
2017-12-24T00:42:00.192Z,32.70
2017-12-24T00:42:59.213Z,35.50
2017-12-24T00:44:00.019Z,33.00
2017-12-24T00:44:59.255Z,35.70
2017-12-24T00:45:59.850Z,35.70
2017-12-24T00:47:00.707Z,35.50
2017-12-24T00:48:00.045Z,34.60
2017-12-24T00:48:58.880Z,33.30
2017-12-24T00:50:00.516Z,36.20
2017-12-24T00:50:59.388Z,40.70
2017-12-24T00:51:59.373Z,33.30
2017-12-24T00:52:59.472Z,37.80
2017-12-24T00:53:59.425Z,35.50
2017-12-24T00:54:59.858Z,35.60
2017-12-24T00:55:59.494Z,37.40
2017-12-24T00:56:59.113Z,38.80
2017-12-24T00:57:59.508Z,37.70
2017-12-24T00:58:59.707Z,38.20
2017-12-24T01:00:00.152Z,39.60
2017-12-24T01:00:59.424Z,37.40
2017-12-24T01:01:59.511Z,38.20
2017-12-24T01:02:59.551Z,35.30
2017-12-24T01:03:59.151Z,39.20
2017-12-24T01:04:58.755Z,35.80
2017-12-24T01:06:00.090Z,36.00
2017-12-24T01:07:21.471Z,36.60
2017-12-24T01:08:21.772Z,34.30
2017-12-24T01:09:22.744Z,39.60
2017-12-24T01:10:23.323Z,34.60
2017-12-24T01:11:22.155Z,37.60
2017-12-24T01:12:20.838Z,37.70
2017-12-24T01:13:21.613Z,40.80
2017-12-24T01:14:22.291Z,38.00
2017-12-24T01:15:43.726Z,35.90
2017-12-24T01:16:44.066Z,34.10
2017-12-24T01:17:43.965Z,36.10
2017-12-24T01:18:43.639Z,35.30
2017-12-24T01:19:43.438Z,33.90
2017-12-24T01:20:44.470Z,38.00
2017-12-24T01:21:43.693Z,36.00
2017-12-24T01:22:43.565Z,35.90
2017-12-24T01:23:43.652Z,36.90
2017-12-24T01:25:06.047Z,33.40
2017-12-24T01:26:05.843Z,36.40
2017-12-24T01:27:06.309Z,33.20
2017-12-24T01:28:05.304Z,33.70
2017-12-24T01:29:06.296Z,30.90
2017-12-24T01:30:05.658Z,28.90
2017-12-24T01:31:27.591Z,28.40
2017-12-24T01:32:28.955Z,31.00
2017-12-24T01:33:28.143Z,34.00
2017-12-24T01:34:28.447Z,29.30
2017-12-24T01:35:28.896Z,30.70
2017-12-24T01:36:50.763Z,26.20
2017-12-24T01:37:50.863Z,25.20
2017-12-24T01:38:50.886Z,28.50
2017-12-24T01:39:50.685Z,28.90
2017-12-24T01:40:50.692Z,26.80
2017-12-24T01:42:12.124Z,27.50
2017-12-24T01:43:13.917Z,23.50
2017-12-24T01:44:13.063Z,25.90
2017-12-24T01:45:13.454Z,26.90
2017-12-24T01:46:37.215Z,30.00
2017-12-24T01:47:36.867Z,27.60
2017-12-24T01:48:37.341Z,25.50
2017-12-24T01:49:37.700Z,28.30
2017-12-24T01:50:38.082Z,25.50
2017-12-24T01:51:37.532Z,28.20
2017-12-24T01:52:37.545Z,24.40
2017-12-24T01:53:38.106Z,31.70
2017-12-24T01:54:37.525Z,21.80
2017-12-24T01:55:37.142Z,24.30
2017-12-24T01:56:37.066Z,26.60
2017-12-24T01:57:37.568Z,27.50
2017-12-24T01:58:38.321Z,25.70
2017-12-24T01:59:37.610Z,29.80
2017-12-24T02:00:37.974Z,29.30
2017-12-24T02:01:37.486Z,31.70
2017-12-24T02:02:37.761Z,28.80
2017-12-24T02:03:37.730Z,30.50
2017-12-24T02:04:37.949Z,31.70
2017-12-24T02:05:36.961Z,31.80
2017-12-24T02:06:36.934Z,29.40
2017-12-24T02:07:36.956Z,29.10
2017-12-24T02:08:37.356Z,28.00
2017-12-24T02:09:38.167Z,24.80
2017-12-24T02:10:37.166Z,25.00
2017-12-24T02:11:37.112Z,24.10
2017-12-24T02:12:36.809Z,28.50
2017-12-24T02:13:37.488Z,26.80
2017-12-24T02:14:37.453Z,25.80
2017-12-24T02:16:00.009Z,31.40
2017-12-24T02:17:00.502Z,29.70
2017-12-24T02:18:00.797Z,27.10
2017-12-24T02:19:00.151Z,30.80
2017-12-24T02:20:22.092Z,28.10
2017-12-24T02:21:22.575Z,31.20
2017-12-24T02:22:22.275Z,29.00
2017-12-24T02:23:22.049Z,27.40
2017-12-24T02:24:22.670Z,29.30
2017-12-24T02:25:23.878Z,31.40
2017-12-24T02:26:23.130Z,25.40
2017-12-24T02:27:21.776Z,27.80
2017-12-24T02:28:22.777Z,29.20
2017-12-24T02:29:44.617Z,29.90
2017-12-24T02:30:45.700Z,28.90
2017-12-24T02:31:45.268Z,29.50
2017-12-24T02:32:45.297Z,31.10
2017-12-24T02:33:45.654Z,27.40
2017-12-24T02:34:44.525Z,28.50
2017-12-24T02:35:46.116Z,30.90
2017-12-24T02:36:45.512Z,24.40
2017-12-24T02:37:45.836Z,23.50
2017-12-24T02:38:44.735Z,25.70
2017-12-24T02:39:45.971Z,23.60
2017-12-24T02:40:45.256Z,29.90
2017-12-24T02:41:45.448Z,23.50
2017-12-24T02:42:45.897Z,32.90
2017-12-24T02:43:44.558Z,27.60
2017-12-24T02:44:45.854Z,23.80
2017-12-24T02:45:45.054Z,22.00
2017-12-24T02:46:45.055Z,23.50
2017-12-24T02:47:45.710Z,24.10
2017-12-24T02:48:44.567Z,29.60
2017-12-24T02:50:07.560Z,30.70
2017-12-24T02:51:07.241Z,32.40
2017-12-24T02:52:07.853Z,27.00
2017-12-24T02:53:08.679Z,29.30
2017-12-24T02:54:08.114Z,27.50
2017-12-24T02:55:07.694Z,26.90
2017-12-24T02:56:08.096Z,29.80
2017-12-24T02:57:07.742Z,27.30
2017-12-24T02:58:07.720Z,26.30
2017-12-24T02:59:08.069Z,27.70
2017-12-24T03:00:08.125Z,26.10
2017-12-24T03:01:08.573Z,23.40
2017-12-24T03:02:08.011Z,27.30
2017-12-24T03:03:07.970Z,29.20
2017-12-24T03:04:07.974Z,25.70
2017-12-24T03:05:07.869Z,24.70
2017-12-24T03:06:08.219Z,25.00
2017-12-24T03:07:07.343Z,25.50
2017-12-24T03:08:08.159Z,25.20
2017-12-24T03:09:08.288Z,27.70
2017-12-24T03:10:07.364Z,26.20
2017-12-24T03:11:07.822Z,25.00
2017-12-24T03:12:08.498Z,26.40
2017-12-24T03:13:08.534Z,25.20
2017-12-24T03:14:07.300Z,23.60
2017-12-24T03:15:08.105Z,19.80
2017-12-24T03:16:07.913Z,23.20
2017-12-24T03:17:08.300Z,28.20
2017-12-24T03:18:28.670Z,26.70
2017-12-24T03:19:30.094Z,25.00
2017-12-24T03:20:29.436Z,25.60
2017-12-24T03:21:29.690Z,27.90
2017-12-24T03:22:28.666Z,23.40
2017-12-24T03:23:29.262Z,24.10
2017-12-24T03:24:29.743Z,27.00
2017-12-24T03:25:29.255Z,25.90
2017-12-24T03:26:30.106Z,28.40
2017-12-24T03:27:29.393Z,28.10
2017-12-24T03:28:29.057Z,26.70
2017-12-24T03:29:28.976Z,25.90
2017-12-24T03:30:28.763Z,25.30
2017-12-24T03:31:29.132Z,27.80
2017-12-24T03:32:29.196Z,25.30
2017-12-24T03:33:29.554Z,27.50
2017-12-24T03:34:29.635Z,28.10
2017-12-24T03:35:29.220Z,27.90
2017-12-24T03:36:29.124Z,25.30
2017-12-24T03:37:29.874Z,29.20
2017-12-24T03:38:28.649Z,27.50
2017-12-24T03:39:29.453Z,24.80
2017-12-24T03:40:29.003Z,26.70
2017-12-24T03:41:29.314Z,24.60
2017-12-24T03:42:29.200Z,27.20
2017-12-24T03:43:28.759Z,25.80
2017-12-24T03:44:28.824Z,24.50
2017-12-24T03:45:29.093Z,19.10
2017-12-24T03:46:28.776Z,24.70
2017-12-24T03:47:29.069Z,27.60
2017-12-24T03:48:29.245Z,23.70
2017-12-24T03:49:29.160Z,26.40
2017-12-24T03:50:28.908Z,25.70
2017-12-24T03:51:29.340Z,22.60
2017-12-24T03:52:28.919Z,22.70
2017-12-24T03:53:28.919Z,24.30
2017-12-24T03:54:28.933Z,24.30
2017-12-24T03:55:28.636Z,23.00
2017-12-24T03:56:29.060Z,26.40
2017-12-24T03:57:51.072Z,24.40
2017-12-24T03:58:52.287Z,25.10
2017-12-24T03:59:53.258Z,23.40
2017-12-24T04:00:51.046Z,28.90
2017-12-24T04:01:51.752Z,25.50
2017-12-24T04:02:51.247Z,25.50
2017-12-24T04:03:51.601Z,24.50
2017-12-24T04:04:51.339Z,26.20
2017-12-24T04:05:51.623Z,26.60
2017-12-24T04:06:51.497Z,25.10
2017-12-24T04:07:51.154Z,27.00
2017-12-24T04:08:52.475Z,27.50
2017-12-24T04:09:51.138Z,26.90
2017-12-24T04:10:52.840Z,26.30
2017-12-24T04:11:51.842Z,28.70
2017-12-24T04:12:51.792Z,24.10
2017-12-24T04:13:52.122Z,25.90
2017-12-24T04:14:51.669Z,27.00
2017-12-24T04:15:51.443Z,28.90
2017-12-24T04:16:52.144Z,30.40
2017-12-24T04:17:52.183Z,26.50
2017-12-24T04:18:52.494Z,28.50
2017-12-24T04:19:51.042Z,27.50
2017-12-24T04:20:51.881Z,31.30
2017-12-24T04:21:52.615Z,29.50
2017-12-24T04:22:51.498Z,29.70
2017-12-24T04:23:52.085Z,30.00
2017-12-24T04:24:51.759Z,30.50
2017-12-24T04:25:51.711Z,28.80
2017-12-24T04:26:51.699Z,29.90
2017-12-24T04:27:52.590Z,29.20
2017-12-24T04:28:51.474Z,28.40
2017-12-24T04:29:51.484Z,32.60
2017-12-24T04:30:51.566Z,29.60
2017-12-24T04:31:51.291Z,27.70
2017-12-24T04:32:51.995Z,31.50
2017-12-24T04:33:51.631Z,28.30
2017-12-24T04:35:12.571Z,28.10
2017-12-24T04:36:13.406Z,30.20
2017-12-24T04:37:13.710Z,29.30
2017-12-24T04:38:14.396Z,30.40
2017-12-24T04:39:13.102Z,30.10
2017-12-24T04:40:13.658Z,28.30
2017-12-24T04:41:14.079Z,28.90
2017-12-24T04:42:13.558Z,28.90
2017-12-24T04:43:13.904Z,31.00
2017-12-24T04:44:14.154Z,30.60
2017-12-24T04:45:13.531Z,31.30
2017-12-24T04:46:13.141Z,29.20
2017-12-24T04:47:13.548Z,28.00
2017-12-24T04:48:13.901Z,29.80
2017-12-24T04:49:12.670Z,31.70
2017-12-24T04:50:35.740Z,28.80
2017-12-24T04:51:36.471Z,32.10
2017-12-24T04:52:36.801Z,32.30
2017-12-24T04:53:36.584Z,29.10
2017-12-24T04:54:36.620Z,30.50
2017-12-24T04:55:36.364Z,31.30
2017-12-24T04:56:36.266Z,30.80
2017-12-24T04:57:35.838Z,29.10
2017-12-24T04:58:37.420Z,34.30
2017-12-24T04:59:36.361Z,32.00
2017-12-24T05:00:36.185Z,31.10
2017-12-24T05:01:36.139Z,36.60
2017-12-24T05:02:35.810Z,34.10
2017-12-24T05:03:36.364Z,31.40
2017-12-24T05:04:36.474Z,33.90
2017-12-24T05:05:36.225Z,33.20
2017-12-24T05:06:35.806Z,36.30
2017-12-24T05:07:35.465Z,35.40
2017-12-24T05:08:36.409Z,34.90
2017-12-24T05:09:36.832Z,37.30
2017-12-24T05:10:36.171Z,37.10
2017-12-24T05:11:35.736Z,33.10
2017-12-24T05:12:36.148Z,37.40
2017-12-24T05:13:36.068Z,36.50
2017-12-24T05:14:36.817Z,36.40
2017-12-24T05:15:36.462Z,33.30
2017-12-24T05:16:36.210Z,35.00
2017-12-24T05:17:35.811Z,34.00
2017-12-24T05:18:36.273Z,40.00
2017-12-24T05:19:36.984Z,40.40
2017-12-24T05:20:35.799Z,36.70
2017-12-24T05:21:36.265Z,39.50
2017-12-24T05:22:36.477Z,41.80
2017-12-24T05:23:36.780Z,38.70
2017-12-24T05:24:36.258Z,32.20
2017-12-24T05:25:36.313Z,32.20
2017-12-24T05:26:36.547Z,35.80
2017-12-24T05:27:36.536Z,38.80
2017-12-24T05:28:36.997Z,34.60
2017-12-24T05:29:35.856Z,35.70
2017-12-24T05:30:35.738Z,40.10
2017-12-24T05:31:36.490Z,40.70
2017-12-24T05:32:36.259Z,41.30
2017-12-24T05:33:36.735Z,39.20
2017-12-24T05:34:36.148Z,34.50
2017-12-24T05:35:36.059Z,39.10
2017-12-24T05:36:35.851Z,41.20
2017-12-24T05:37:36.709Z,39.10
2017-12-24T05:38:35.756Z,39.60
2017-12-24T05:39:37.082Z,40.10
2017-12-24T05:40:35.850Z,44.30
2017-12-24T05:41:36.739Z,42.30
2017-12-24T05:42:36.605Z,40.50
2017-12-24T05:43:36.842Z,40.80
2017-12-24T05:44:35.975Z,47.90
2017-12-24T05:45:36.387Z,42.40
2017-12-24T05:46:36.304Z,44.90
2017-12-24T05:47:37.117Z,41.70
2017-12-24T05:48:36.490Z,41.30
2017-12-24T05:49:36.015Z,43.60
2017-12-24T05:50:36.357Z,43.70
2017-12-24T05:51:36.171Z,43.00
2017-12-24T05:52:36.011Z,43.70
2017-12-24T05:53:36.354Z,47.70
2017-12-24T05:54:36.729Z,45.00
2017-12-24T05:55:36.263Z,48.70
2017-12-24T05:56:35.856Z,48.10
2017-12-24T05:57:36.188Z,44.00
2017-12-24T05:58:37.027Z,42.30
2017-12-24T05:59:36.236Z,49.80
2017-12-24T06:00:59.015Z,42.50
2017-12-24T06:01:59.784Z,44.20
2017-12-24T06:03:00.191Z,49.10
2017-12-24T06:04:00.864Z,45.00
2017-12-24T06:04:59.383Z,40.40
2017-12-24T06:05:59.108Z,44.50
2017-12-24T06:07:00.537Z,43.20
2017-12-24T06:07:59.497Z,44.40
2017-12-24T06:08:59.136Z,43.30
2017-12-24T06:10:00.827Z,42.50
2017-12-24T06:10:59.432Z,39.10
2017-12-24T06:11:59.075Z,44.30
2017-12-24T06:13:00.391Z,43.60
2017-12-24T06:14:00.002Z,37.90
2017-12-24T06:15:12.928Z,37.30
2017-12-24T06:16:00.047Z,40.70
2017-12-24T06:17:00.546Z,43.30
2017-12-24T06:17:59.447Z,38.20
2017-12-24T06:18:18.964Z,39.70
2017-12-24T06:19:19.368Z,34.40
2017-12-24T06:20:19.779Z,39.70
2017-12-24T06:21:20.548Z,39.70
2017-12-24T06:22:41.515Z,31.40
2017-12-24T06:23:42.149Z,32.20
2017-12-24T06:24:42.384Z,35.10
2017-12-24T06:25:42.849Z,18.50
2017-12-24T06:26:42.196Z,35.60
2017-12-24T06:27:42.600Z,34.70
2017-12-24T06:28:41.510Z,39.50
2017-12-24T06:29:42.893Z,40.10
2017-12-24T06:30:42.094Z,37.60
2017-12-24T06:31:42.401Z,36.70
2017-12-24T06:32:42.559Z,29.30
2017-12-24T06:33:42.003Z,38.60
2017-12-24T06:34:42.464Z,32.60
2017-12-24T06:35:41.276Z,31.80
2017-12-24T06:36:42.034Z,29.50
2017-12-24T06:37:41.727Z,25.10
2017-12-24T06:38:42.038Z,25.10
2017-12-24T06:39:41.684Z,33.60
2017-12-24T06:40:41.269Z,29.20
2017-12-24T06:41:42.364Z,37.50
2017-12-24T06:42:42.282Z,35.40
2017-12-24T06:43:44.148Z,34.00
2017-12-24T06:44:41.964Z,35.00
2017-12-24T06:45:42.412Z,37.10
2017-12-24T06:46:42.854Z,21.20
2017-12-24T06:47:42.292Z,20.40
2017-12-24T06:48:41.975Z,24.50
2017-12-24T06:49:41.942Z,28.10
2017-12-24T06:50:42.198Z,24.40
2017-12-24T06:51:42.673Z,27.20
2017-12-24T06:52:41.329Z,26.10
2017-12-24T06:53:42.047Z,25.30
2017-12-24T06:54:42.457Z,30.20
2017-12-24T06:55:42.871Z,26.00
2017-12-24T06:56:41.744Z,29.70
2017-12-24T06:57:41.660Z,34.30
2017-12-24T06:58:41.471Z,33.30
2017-12-24T06:59:42.307Z,30.20
2017-12-24T07:00:43.176Z,23.30
2017-12-24T07:01:42.034Z,24.70
2017-12-24T07:02:42.355Z,28.20
2017-12-24T07:03:42.778Z,26.60
2017-12-24T07:04:42.257Z,27.50
2017-12-24T07:05:42.925Z,31.60
2017-12-24T07:06:41.743Z,27.90
2017-12-24T07:07:41.657Z,23.40
2017-12-24T07:08:41.254Z,26.90
2017-12-24T07:09:41.902Z,37.70
2017-12-24T07:10:41.836Z,35.60
2017-12-24T07:11:42.515Z,36.00
2017-12-24T07:12:41.531Z,28.30
2017-12-24T07:13:42.878Z,30.30
2017-12-24T07:14:41.640Z,33.10
2017-12-24T07:15:41.570Z,34.20
2017-12-24T07:16:42.106Z,26.20
2017-12-24T07:17:42.398Z,33.80
2017-12-24T07:18:42.407Z,28.90
2017-12-24T07:19:42.131Z,39.80
2017-12-24T07:20:42.355Z,38.40
2017-12-24T07:21:42.107Z,36.90
2017-12-24T07:22:42.014Z,35.70
2017-12-24T07:23:42.818Z,38.00
2017-12-24T07:24:42.109Z,37.70
2017-12-24T07:26:26.482Z,34.80
2017-12-24T07:27:48.319Z,40.90
2017-12-24T07:28:50.061Z,33.10
2017-12-24T07:29:48.857Z,34.70
2017-12-24T07:30:48.863Z,45.70
2017-12-24T07:31:48.713Z,47.60
2017-12-24T07:32:49.232Z,35.40
2017-12-24T07:33:49.630Z,36.20
2017-12-24T07:34:48.317Z,36.10
2017-12-24T07:35:48.956Z,36.40
2017-12-24T07:36:49.155Z,39.30
2017-12-24T07:37:49.524Z,46.60
2017-12-24T07:38:49.556Z,40.20
2017-12-24T07:39:49.863Z,40.40
2017-12-24T07:40:48.969Z,43.90
2017-12-24T07:41:49.325Z,34.20
2017-12-24T07:42:49.098Z,37.60
2017-12-24T07:43:50.085Z,37.60
2017-12-24T07:44:48.895Z,40.00
2017-12-24T07:45:48.899Z,38.90
2017-12-24T07:46:48.807Z,34.80
2017-12-24T07:47:49.358Z,35.10
2017-12-24T07:48:50.262Z,34.20
2017-12-24T07:49:49.839Z,24.40
2017-12-24T07:50:48.608Z,35.40
2017-12-24T07:51:49.300Z,34.40
2017-12-24T07:52:49.858Z,36.30
2017-12-24T07:53:49.065Z,28.00
2017-12-24T07:54:50.096Z,26.80
2017-12-24T07:55:49.521Z,27.30
2017-12-24T07:56:49.048Z,22.00
2017-12-24T07:57:49.413Z,27.80
2017-12-24T07:58:49.929Z,31.70
2017-12-24T07:59:49.131Z,31.80
2017-12-24T08:00:49.723Z,31.70
2017-12-24T08:01:48.873Z,36.50
2017-12-24T08:02:48.761Z,29.30
2017-12-24T08:03:48.685Z,31.80
2017-12-24T08:04:49.166Z,29.80
2017-12-24T08:05:49.634Z,26.60
2017-12-24T08:06:48.764Z,33.40
2017-12-24T08:07:48.612Z,32.70
2017-12-24T08:08:48.638Z,33.60
2017-12-24T08:09:49.493Z,38.00
2017-12-24T08:10:49.401Z,34.40
2017-12-24T08:11:50.365Z,27.60
2017-12-24T08:12:49.850Z,32.20
2017-12-24T08:13:48.635Z,31.10
2017-12-24T08:14:49.619Z,34.40
2017-12-24T08:15:49.321Z,30.40
2017-12-24T08:16:49.984Z,30.40
2017-12-24T08:17:49.150Z,31.20
2017-12-24T08:18:49.957Z,27.10
2017-12-24T08:19:48.995Z,26.50
2017-12-24T08:20:49.607Z,27.00
2017-12-24T08:21:48.807Z,27.30
2017-12-24T08:22:48.949Z,24.80
2017-12-24T08:23:49.219Z,24.00
2017-12-24T08:24:49.376Z,26.90
2017-12-24T08:25:49.585Z,22.60
2017-12-24T08:27:12.453Z,25.80
2017-12-24T08:28:12.217Z,23.40
2017-12-24T08:29:33.783Z,27.00
2017-12-24T08:30:34.711Z,18.30
2017-12-24T08:31:35.330Z,19.20
2017-12-24T08:32:35.429Z,143.00
2017-12-24T08:33:35.056Z,22.70
2017-12-24T08:34:34.522Z,23.00
2017-12-24T08:35:34.616Z,19.60
2017-12-24T08:36:56.940Z,22.50
2017-12-24T08:37:57.092Z,20.00
2017-12-24T08:38:57.953Z,21.50
2017-12-24T08:39:57.279Z,21.80
2017-12-24T08:40:57.151Z,18.40
2017-12-24T08:41:57.236Z,20.20
2017-12-24T08:42:57.476Z,23.00
2017-12-24T08:43:58.312Z,24.20
2017-12-24T08:44:57.954Z,24.40
2017-12-24T08:45:58.051Z,25.40
2017-12-24T08:46:57.197Z,20.70
2017-12-24T08:47:57.605Z,22.60
2017-12-24T08:48:57.622Z,22.70
2017-12-24T08:49:58.122Z,27.90
2017-12-24T08:50:57.633Z,22.70
2017-12-24T08:51:57.780Z,23.50
2017-12-24T08:52:56.818Z,22.70
2017-12-24T08:53:57.249Z,22.30
2017-12-24T08:54:57.809Z,19.20
2017-12-24T08:55:57.237Z,23.50
2017-12-24T08:56:57.560Z,20.70
2017-12-24T08:57:57.784Z,22.30
2017-12-24T08:58:58.195Z,21.10
2017-12-24T08:59:57.661Z,19.10
2017-12-24T09:00:57.867Z,22.10
2017-12-24T09:01:57.118Z,22.90
2017-12-24T09:02:57.154Z,21.80
2017-12-24T09:03:58.967Z,21.40
2017-12-24T09:04:58.401Z,27.20
2017-12-24T09:05:58.470Z,18.90
2017-12-24T09:06:58.123Z,20.80
2017-12-24T09:07:57.700Z,22.30
2017-12-24T09:08:57.867Z,20.50
2017-12-24T09:09:57.421Z,18.90
2017-12-24T09:10:58.015Z,20.60
2017-12-24T09:11:56.704Z,19.40
2017-12-24T09:12:57.237Z,20.40
2017-12-24T09:13:57.023Z,19.90
2017-12-24T09:14:57.360Z,23.10
2017-12-24T09:15:57.559Z,23.20
2017-12-24T09:16:57.967Z,25.10
2017-12-24T09:18:18.897Z,23.10
2017-12-24T09:19:19.847Z,23.60
2017-12-24T09:20:19.050Z,25.00
2017-12-24T09:21:19.915Z,22.50
2017-12-24T09:22:18.732Z,23.70
2017-12-24T09:23:18.652Z,24.20
2017-12-24T09:24:19.209Z,25.50
2017-12-24T09:25:18.430Z,31.40
2017-12-24T09:26:18.392Z,25.20
2017-12-24T09:27:19.915Z,27.00
2017-12-24T09:28:19.133Z,27.10
2017-12-24T09:29:19.319Z,30.10
2017-12-24T09:30:18.571Z,26.40
2017-12-24T09:31:18.441Z,25.80
2017-12-24T09:32:18.749Z,26.50
2017-12-24T09:33:18.749Z,22.70
2017-12-24T09:34:19.467Z,21.80
2017-12-24T09:35:19.483Z,24.30
2017-12-24T09:36:18.978Z,25.60
2017-12-24T09:37:19.860Z,21.00
2017-12-24T09:38:19.274Z,24.60
2017-12-24T09:39:18.581Z,25.00
2017-12-24T09:40:18.576Z,21.60
2017-12-24T09:41:19.875Z,19.30
2017-12-24T09:42:19.207Z,20.60
2017-12-24T09:43:18.887Z,18.40
2017-12-24T09:44:19.228Z,20.90
2017-12-24T09:45:19.312Z,17.80
2017-12-24T09:46:18.909Z,20.00
2017-12-24T09:47:18.859Z,21.50
2017-12-24T09:48:19.999Z,19.40
2017-12-24T09:49:19.539Z,20.50
2017-12-24T09:50:18.778Z,20.10
2017-12-24T09:51:18.663Z,16.30
2017-12-24T09:52:19.803Z,17.00
2017-12-24T09:53:19.308Z,19.20
2017-12-24T09:54:18.870Z,19.90
2017-12-24T09:55:20.718Z,20.10
2017-12-24T09:56:19.284Z,15.40
2017-12-24T09:57:18.716Z,16.50
2017-12-24T09:58:19.052Z,18.50
2017-12-24T09:59:19.686Z,14.50
2017-12-24T10:00:18.993Z,15.40
2017-12-24T10:01:19.519Z,14.80
2017-12-24T10:02:18.265Z,19.50
2017-12-24T10:03:18.799Z,16.60
2017-12-24T10:04:18.772Z,17.30
2017-12-24T10:05:19.097Z,18.70
2017-12-24T10:06:18.802Z,18.20
2017-12-24T10:07:19.290Z,18.00
2017-12-24T10:08:19.303Z,19.50
2017-12-24T10:09:18.999Z,15.70
2017-12-24T10:10:19.542Z,18.70
2017-12-24T10:11:18.957Z,19.80
2017-12-24T10:12:19.597Z,16.00
2017-12-24T10:13:19.314Z,16.50
2017-12-24T10:14:18.575Z,15.30
2017-12-24T10:15:19.310Z,18.90
2017-12-24T10:16:40.856Z,18.70
2017-12-24T10:17:41.579Z,16.00
2017-12-24T10:18:40.923Z,19.40
2017-12-24T10:19:41.216Z,18.30
2017-12-24T10:20:41.246Z,16.70
2017-12-24T10:21:42.631Z,16.10
2017-12-24T10:22:41.029Z,14.30
2017-12-24T10:23:41.312Z,12.90
2017-12-24T10:24:42.851Z,15.00
2017-12-24T10:25:41.156Z,13.80
2017-12-24T10:26:41.981Z,11.00
2017-12-24T10:27:41.673Z,13.80
2017-12-24T10:28:41.640Z,16.20
2017-12-24T10:29:41.512Z,15.40
2017-12-24T10:30:40.781Z,17.30
2017-12-24T10:31:41.715Z,15.30
2017-12-24T10:32:40.845Z,17.40
2017-12-24T10:33:41.009Z,14.60
2017-12-24T10:34:41.598Z,13.80
2017-12-24T10:35:41.394Z,15.40
2017-12-24T10:36:40.684Z,16.20
2017-12-24T10:37:41.632Z,14.10
2017-12-24T10:38:40.977Z,14.30
2017-12-24T10:39:41.282Z,15.30
2017-12-24T10:40:42.486Z,16.10
2017-12-24T10:41:41.677Z,14.80
2017-12-24T10:42:40.949Z,18.20
2017-12-24T10:43:41.332Z,17.90
2017-12-24T10:44:41.209Z,14.90
2017-12-24T10:45:42.298Z,20.90
2017-12-24T10:46:40.225Z,18.00
2017-12-24T10:47:41.798Z,18.40
2017-12-24T10:48:40.687Z,20.60
2017-12-24T10:49:41.190Z,21.20
2017-12-24T10:50:41.550Z,22.70
2017-12-24T10:51:41.880Z,22.10
2017-12-24T10:52:41.711Z,25.10
2017-12-24T10:53:41.021Z,22.90
2017-12-24T10:54:40.989Z,22.30
2017-12-24T10:55:41.761Z,18.20
2017-12-24T10:56:41.170Z,20.60
2017-12-24T10:57:41.695Z,23.40
2017-12-24T10:58:41.293Z,20.30
2017-12-24T10:59:42.568Z,21.70
2017-12-24T11:00:41.016Z,20.50
2017-12-24T11:01:42.006Z,20.10
2017-12-24T11:02:41.636Z,22.30
2017-12-24T11:03:41.050Z,21.20
2017-12-24T11:04:41.153Z,19.60
2017-12-24T11:05:41.746Z,24.20
2017-12-24T11:06:42.767Z,24.90
2017-12-24T11:07:42.282Z,23.60
2017-12-24T11:08:41.381Z,25.40
2017-12-24T11:09:41.797Z,21.80
2017-12-24T11:10:42.191Z,29.50
2017-12-24T11:11:41.312Z,27.50
2017-12-24T11:12:42.380Z,29.30
2017-12-24T11:13:44.203Z,29.50
2017-12-24T11:14:41.941Z,26.20
2017-12-24T11:15:41.309Z,29.20
2017-12-24T11:16:41.230Z,28.50
2017-12-24T11:17:40.946Z,25.60
2017-12-24T11:18:41.814Z,25.80
2017-12-24T11:19:41.978Z,25.40
2017-12-24T11:20:41.690Z,20.40
2017-12-24T11:21:41.384Z,19.10
2017-12-24T11:22:41.052Z,23.20
2017-12-24T11:23:42.038Z,25.50
2017-12-24T11:24:42.768Z,27.00
2017-12-24T11:25:41.486Z,25.00
2017-12-24T11:26:42.306Z,25.40
2017-12-24T11:27:42.486Z,25.10
2017-12-24T11:28:41.642Z,27.30
2017-12-24T11:29:41.006Z,25.40
2017-12-24T11:30:43.061Z,27.50
2017-12-24T11:31:41.471Z,22.30
2017-12-24T11:32:40.336Z,20.00
2017-12-24T11:33:43.844Z,24.70
2017-12-24T11:34:41.579Z,22.60
2017-12-24T11:35:41.116Z,23.70
2017-12-24T11:36:41.974Z,21.20
2017-12-24T11:37:40.939Z,21.30
2017-12-24T11:38:41.352Z,24.20
2017-12-24T11:39:41.551Z,23.70
2017-12-24T11:40:41.242Z,21.20
2017-12-24T11:41:41.927Z,23.70
2017-12-24T11:42:41.448Z,23.40
2017-12-24T11:43:40.884Z,22.70
2017-12-24T11:44:41.468Z,21.00
2017-12-24T11:45:40.938Z,22.20
2017-12-24T11:46:41.314Z,26.70
2017-12-24T11:47:42.031Z,23.10
2017-12-24T11:48:41.519Z,24.90
2017-12-24T11:49:41.082Z,25.20
2017-12-24T11:50:43.470Z,25.80
2017-12-24T11:51:40.843Z,25.30
2017-12-24T11:52:40.867Z,25.40
2017-12-24T11:53:42.991Z,27.50
2017-12-24T11:54:41.578Z,24.90
2017-12-24T11:55:41.828Z,23.90
2017-12-24T11:56:41.112Z,25.90
2017-12-24T11:57:42.035Z,27.20
2017-12-24T11:58:43.700Z,23.60
2017-12-24T11:59:41.589Z,27.00
2017-12-24T12:00:40.613Z,26.40
2017-12-24T12:01:41.318Z,28.90
2017-12-24T12:02:40.672Z,27.30
2017-12-24T12:03:40.929Z,28.80
2017-12-24T12:04:42.408Z,25.20
2017-12-24T12:05:41.103Z,28.80
2017-12-24T12:06:41.708Z,27.60
2017-12-24T12:08:03.323Z,29.50
2017-12-24T12:09:03.762Z,28.10
2017-12-24T12:10:04.025Z,31.00
2017-12-24T12:11:03.399Z,32.90
2017-12-24T12:12:04.449Z,31.20
2017-12-24T12:13:03.809Z,35.90
2017-12-24T12:14:03.185Z,31.90
2017-12-24T12:15:04.003Z,35.50
2017-12-24T12:16:02.916Z,38.00
2017-12-24T12:17:49.068Z,36.90
2017-12-24T12:18:49.618Z,44.00
2017-12-24T12:19:49.060Z,40.90
2017-12-24T12:20:50.613Z,44.80
2017-12-24T12:21:50.107Z,42.80
2017-12-24T12:22:50.483Z,39.10
2017-12-24T12:23:49.094Z,41.70
2017-12-24T12:24:49.159Z,42.20
2017-12-24T12:25:50.667Z,42.90
2017-12-24T12:26:49.788Z,44.40
2017-12-24T12:27:48.844Z,42.40
2017-12-24T12:28:49.521Z,37.70
2017-12-24T12:29:49.986Z,37.00
2017-12-24T12:30:49.436Z,37.90
2017-12-24T12:31:49.915Z,28.00
2017-12-24T12:32:49.104Z,31.90
2017-12-24T12:33:49.107Z,39.40
2017-12-24T12:34:49.176Z,38.40
2017-12-24T12:35:49.203Z,28.10
2017-12-24T12:36:49.620Z,27.30
2017-12-24T12:37:50.244Z,28.30
2017-12-24T12:38:50.302Z,29.20
2017-12-24T12:40:12.677Z,29.10
2017-12-24T12:41:13.353Z,22.10
2017-12-24T12:42:12.913Z,20.20
2017-12-24T12:43:13.887Z,19.80
2017-12-24T12:44:13.898Z,19.20
2017-12-24T12:45:14.305Z,18.20
2017-12-24T12:46:34.798Z,17.30
2017-12-24T12:47:34.747Z,15.20
2017-12-24T12:48:35.426Z,12.50
2017-12-24T12:49:35.530Z,16.00
2017-12-24T12:50:34.583Z,15.20
2017-12-24T12:51:59.432Z,13.80
2017-12-24T12:52:58.803Z,14.50
2017-12-24T12:53:58.800Z,14.50
2017-12-24T12:54:57.738Z,12.90
2017-12-24T12:55:58.225Z,10.90
2017-12-24T12:56:58.211Z,13.80
2017-12-24T12:57:58.506Z,13.70
2017-12-24T12:58:58.219Z,11.90
2017-12-24T12:59:58.649Z,10.10
2017-12-24T13:00:58.175Z,10.50
2017-12-24T13:02:00.729Z,10.10
2017-12-24T13:02:59.588Z,10.70
2017-12-24T13:03:58.897Z,7.50